Time;durP1;ratioP1;P1;durP2;ratioP2;P2;SDS_P1;SDS_P2;PMS_P1;PMS_P2;Temp;Humidity;BMP_temperature;BMP_pressure;BME280_temperature;BME280_humidity;BME280_pressure;Samples;Min_cycle;Max_cycle;Signal;HPM_P1;HPM_P2
2022/07/31 00:02:23;;;;;;;20.65;10.68;;;;;;;20.15;91.54;101697.47;5054989;28;20033;-50
2022/07/31 00:04:48;;;;;;;17.70;10.60;;;;;;;20.17;91.28;101692.69;5055473;28;20263;-50
2022/07/31 00:07:13;;;;;;;20.75;12.30;;;;;;;20.20;91.04;101692.28;5059389;28;20123;-51
2022/07/31 00:09:39;;;;;;;22.10;11.65;;;;;;;20.24;90.85;101696.25;5058473;28;20021;-49
2022/07/31 00:12:04;;;;;;;20.60;11.75;;;;;;;20.32;91.72;101690.63;5057592;28;20025;-49
2022/07/31 00:14:29;;;;;;;19.98;11.32;;;;;;;20.27;91.24;101691.25;5056696;28;20056;-52
2022/07/31 00:16:56;;;;;;;22.02;11.88;;;;;;;20.28;91.53;101687.50;5058389;28;20183;-48
2022/07/31 00:19:21;;;;;;;16.33;10.63;;;;;;;20.32;91.30;101679.78;5058042;28;20032;-51
2022/07/31 00:21:47;;;;;;;20.10;10.63;;;;;;;20.35;90.74;101684.81;5058868;28;20535;-49
2022/07/31 00:24:13;;;;;;;17.02;10.38;;;;;;;20.37;90.26;101685.41;5058178;28;20059;-52
2022/07/31 00:26:39;;;;;;;17.77;10.50;;;;;;;20.29;90.90;101683.72;5058554;28;20036;-52
2022/07/31 00:29:05;;;;;;;18.92;10.40;;;;;;;20.29;89.51;101672.03;5055656;28;20411;-51
2022/07/31 00:31:30;;;;;;;16.33;9.80;;;;;;;20.27;89.61;101683.09;5058372;28;20085;-49
2022/07/31 00:33:56;;;;;;;18.95;9.90;;;;;;;20.29;90.75;101681.00;5058363;28;20618;-51
2022/07/31 00:36:21;;;;;;;17.58;9.38;;;;;;;20.26;89.18;101681.41;5057647;28;20440;-51
2022/07/31 00:38:46;;;;;;;16.52;8.93;;;;;;;20.20;87.60;101692.28;5057962;28;20078;-51
2022/07/31 00:41:12;;;;;;;17.38;9.77;;;;;;;20.15;87.89;101689.34;5058778;28;20087;-51
2022/07/31 00:43:37;;;;;;;19.15;9.15;;;;;;;20.19;87.83;101685.16;5057003;28;20966;-51
2022/07/31 00:46:03;;;;;;;17.60;8.68;;;;;;;20.06;86.08;101681.38;5056722;28;20032;-49
2022/07/31 00:48:28;;;;;;;18.35;8.35;;;;;;;20.04;85.98;101678.00;5056651;28;20048;-47
2022/07/31 00:50:54;;;;;;;12.18;8.13;;;;;;;20.07;86.87;101674.91;5058278;28;20024;-50
2022/07/31 00:53:20;;;;;;;21.00;8.30;;;;;;;20.05;86.46;101674.28;5057826;28;20111;-52
2022/07/31 00:55:46;;;;;;;12.18;7.63;;;;;;;20.05;87.06;101666.16;5057994;28;20451;-50
2022/07/31 00:58:11;;;;;;;21.77;7.95;;;;;;;20.09;87.13;101664.69;5057682;28;20024;-51
2022/07/31 01:00:36;;;;;;;18.05;7.38;;;;;;;20.14;86.39;101666.78;5053355;28;20017;-52
2022/07/31 01:03:01;;;;;;;15.15;7.07;;;;;;;20.10;85.81;101658.22;5056881;28;20055;-49
2022/07/31 01:05:27;;;;;;;21.55;7.50;;;;;;;20.05;85.93;101655.28;5055743;28;20065;-51
2022/07/31 01:07:52;;;;;;;15.98;7.00;;;;;;;20.04;85.54;101653.59;5054346;28;20498;-52
2022/07/31 01:10:41;;;;;;;14.80;6.85;;;;;;;20.07;85.00;101655.91;5046203;28;20436;-51
2022/07/31 01:13:12;;;;;;;15.95;6.95;;;;;;;19.98;85.69;101659.03;5065188;28;20083;-51
2022/07/31 01:15:39;;;;;;;11.52;6.18;;;;;;;19.97;86.03;101663.59;5046075;28;20026;-51
2022/07/31 01:18:05;;;;;;;14.25;6.22;;;;;;;19.87;86.41;101658.56;5055889;28;20129;-52
2022/07/31 01:20:32;;;;;;;10.77;5.90;;;;;;;19.86;86.55;101656.09;5056585;28;20462;-52
2022/07/31 01:23:46;;;;;;;14.38;6.30;;;;;;;19.88;86.43;101657.53;5056352;28;20020;-52
2022/07/31 01:26:32;;;;;;;12.38;6.68;;;;;;;19.84;86.69;101661.72;5050391;28;20040;-51
2022/07/31 01:29:17;;;;;;;15.80;7.45;;;;;;;19.77;87.31;101663.53;5052990;28;20510;-51
2022/07/31 01:31:46;;;;;;;13.93;7.75;;;;;;;19.74;88.32;101655.78;5056589;28;20086;-52
2022/07/31 01:34:27;;;;;;;16.50;7.72;;;;;;;19.68;88.06;101657.41;5055449;28;20165;-51
2022/07/31 01:37:05;;;;;;;;;;;;;;;19.80;86.55;101659.59;5055624;28;20028;-52
2022/07/31 01:39:34;;;;;;;19.27;8.60;;;;;;;19.68;88.47;101667.44;5056565;28;20264;-52
2022/07/31 01:42:03;;;;;;;18.33;8.70;;;;;;;19.63;88.87;101662.59;5056220;28;20162;-49
2022/07/31 01:44:30;;;;;;;19.58;8.38;;;;;;;19.63;89.55;101664.50;5043369;28;20719;-51
2022/07/31 01:46:57;;;;;;;18.15;8.80;;;;;;;19.55;90.11;101662.78;5053812;28;20494;-51
2022/07/31 01:49:25;;;;;;;14.90;8.90;;;;;;;19.44;90.69;101656.06;5069891;28;20028;-52
2022/07/31 01:51:52;;;;;;;17.05;8.88;;;;;;;19.39;91.22;101656.66;5056277;28;20078;-51
2022/07/31 01:54:19;;;;;;;18.17;8.80;;;;;;;19.35;91.59;101660.81;5054308;28;20193;-50
2022/07/31 01:56:46;;;;;;;15.85;8.82;;;;;;;19.32;91.34;101663.09;5054669;28;20036;-51
2022/07/31 01:59:13;;;;;;;19.15;9.13;;;;;;;19.25;91.41;101663.03;5012868;28;1146239;-51
2022/07/31 02:01:39;;;;;;;18.40;9.05;;;;;;;19.18;92.12;101663.00;5056717;28;20033;-50
2022/07/31 02:04:05;;;;;;;16.85;8.95;;;;;;;19.17;92.07;101661.31;5053494;28;20031;-49
2022/07/31 02:06:31;;;;;;;22.17;8.90;;;;;;;19.20;92.77;101660.09;5057496;28;20548;-48
2022/07/31 02:08:58;;;;;;;17.27;8.57;;;;;;;19.20;91.60;101660.09;5056310;28;20021;-50
2022/07/31 02:11:24;;;;;;;20.10;8.63;;;;;;;19.19;91.72;101650.28;5056467;28;20109;-50
2022/07/31 02:13:52;;;;;;;18.48;8.90;;;;;;;19.24;91.80;101655.09;5054558;28;20040;-49
2022/07/31 02:16:19;;;;;;;16.70;8.55;;;;;;;19.27;92.51;101647.41;5056910;28;20467;-49
2022/07/31 02:18:48;;;;;;;21.40;9.15;;;;;;;19.35;91.43;101657.28;5055236;28;20247;-49
2022/07/31 02:21:14;;;;;;;17.63;8.68;;;;;;;19.35;92.24;101647.25;5056587;28;20024;-51
2022/07/31 02:23:39;;;;;;;18.42;8.27;;;;;;;19.37;91.07;101650.59;5055855;28;20077;-52
2022/07/31 02:26:06;;;;;;;16.33;9.05;;;;;;;19.34;91.00;101652.88;5056165;28;20359;-51
2022/07/31 02:28:33;;;;;;;18.30;8.88;;;;;;;19.28;91.28;101643.69;5055292;28;20025;-50
2022/07/31 02:31:00;;;;;;;16.75;9.27;;;;;;;19.23;91.58;101646.16;5054903;28;20020;-50
2022/07/31 02:33:27;;;;;;;19.63;9.10;;;;;;;19.14;92.42;101656.28;5054675;28;20028;-50
2022/07/31 02:35:55;;;;;;;15.18;8.73;;;;;;;19.04;92.91;101661.22;5055808;28;20089;-51
2022/07/31 02:38:22;;;;;;;15.60;9.27;;;;;;;18.95;93.51;101652.41;5056063;28;20021;-50
2022/07/31 02:40:50;;;;;;;17.20;9.05;;;;;;;18.96;94.29;101656.81;5055402;28;20040;-51
2022/07/31 02:43:16;;;;;;;17.95;9.85;;;;;;;18.93;95.03;101656.34;5056174;28;20486;-48
2022/07/31 02:45:42;;;;;;;19.55;9.90;;;;;;;18.90;95.34;101651.34;5053283;28;20423;-47
2022/07/31 02:48:08;;;;;;;22.20;10.00;;;;;;;18.82;95.88;101650.44;5055005;28;20025;-50
2022/07/31 02:50:34;;;;;;;18.00;10.52;;;;;;;18.89;96.13;101646.94;5055119;28;20039;-50
2022/07/31 02:52:59;;;;;;;16.70;10.00;;;;;;;18.89;96.29;101644.22;5056614;28;20009;-51
2022/07/31 02:55:26;;;;;;;20.05;10.50;;;;;;;18.86;96.70;101642.78;5055138;28;20647;-51
2022/07/31 02:57:51;;;;;;;21.98;9.93;;;;;;;18.86;96.42;101640.06;5055691;28;20103;-52
2022/07/31 03:00:25;;;;;;;21.27;10.52;;;;;;;18.86;96.81;101639.25;5053186;28;20111;-52
2022/07/31 03:02:52;;;;;;;18.95;10.15;;;;;;;18.86;96.51;101636.53;5053102;28;20034;-53
2022/07/31 03:05:18;;;;;;;20.92;11.00;;;;;;;18.79;97.38;101637.28;5055179;28;20527;-51
2022/07/31 03:07:44;;;;;;;16.15;10.98;;;;;;;18.81;97.60;101635.19;5054503;28;20122;-51
2022/07/31 03:10:10;;;;;;;19.75;11.18;;;;;;;18.85;97.60;101629.44;5042775;28;20024;-50
2022/07/31 03:12:39;;;;;;;19.10;11.02;;;;;;;18.80;98.70;101629.97;5056065;28;20459;-52
2022/07/31 03:15:10;;;;;;;29.75;12.52;;;;;;;18.80;100.00;101629.97;5038628;28;20024;-52
2022/07/31 03:17:38;;;;;;;30.42;12.48;;;;;;;18.81;100.00;101618.13;5053284;28;20370;-52
2022/07/31 03:20:05;;;;;;;27.98;13.43;;;;;;;18.73;100.00;101618.28;5054931;28;20580;-52
2022/07/31 03:22:31;;;;;;;23.27;13.10;;;;;;;18.64;100.00;101614.88;5055530;28;20584;-52
2022/07/31 03:24:56;;;;;;;28.73;12.80;;;;;;;18.65;100.00;101611.13;5054909;28;20012;-52
2022/07/31 03:27:22;;;;;;;23.70;13.35;;;;;;;18.63;100.00;101611.34;5054645;28;20035;-51
2022/07/31 03:29:48;;;;;;;32.15;14.05;;;;;;;18.59;100.00;101615.47;5053153;28;20169;-49
2022/07/31 03:32:13;;;;;;;20.35;14.15;;;;;;;18.58;100.00;101621.91;5052430;28;20222;-52
2022/07/31 03:34:39;;;;;;;34.53;14.75;;;;;;;18.58;100.00;101618.34;5055143;28;20012;-51
2022/07/31 03:37:04;;;;;;;33.42;14.55;;;;;;;18.56;100.00;101613.13;5070211;28;20411;-51
2022/07/31 03:39:29;;;;;;;21.45;14.75;;;;;;;18.54;100.00;101611.69;5054735;28;20027;-49
2022/07/31 03:41:55;;;;;;;25.35;14.30;;;;;;;18.52;100.00;101621.88;5055712;28;20536;-50
2022/07/31 03:44:21;;;;;;;26.48;14.57;;;;;;;18.48;100.00;101609.75;5052008;28;20020;-50
2022/07/31 03:46:47;;;;;;;23.73;14.20;;;;;;;18.51;100.00;101614.78;5055843;28;20052;-49
2022/07/31 03:49:13;;;;;;;23.52;13.23;;;;;;;18.52;100.00;101611.03;5053333;28;20362;-50
2022/07/31 03:51:38;;;;;;;23.73;13.18;;;;;;;18.50;100.00;101615.78;5055621;28;20185;-48
2022/07/31 03:54:04;;;;;;;22.75;12.05;;;;;;;18.42;100.00;101622.19;5054074;28;20520;-50
2022/07/31 03:56:30;;;;;;;22.63;12.45;;;;;;;18.39;100.00;101615.28;5055792;28;20051;-47
2022/07/31 03:58:56;;;;;;;22.88;12.27;;;;;;;18.38;100.00;101610.06;5052369;28;20044;-50
2022/07/31 04:01:21;;;;;;;21.48;12.50;;;;;;;18.32;100.00;101618.97;5054852;28;20391;-51
2022/07/31 04:03:47;;;;;;;26.83;13.38;;;;;;;18.34;100.00;101625.84;5054040;28;20051;-50
2022/07/31 04:06:12;;;;;;;30.00;14.40;;;;;;;18.28;100.00;101629.34;5053929;28;20150;-50
2022/07/31 04:08:37;;;;;;;25.67;14.68;;;;;;;18.22;100.00;101625.53;5053115;28;20609;-51
2022/07/31 04:11:03;;;;;;;24.63;14.45;;;;;;;18.21;100.00;101623.00;5054955;28;20129;-52
2022/07/31 04:13:28;;;;;;;26.60;14.80;;;;;;;18.19;100.00;101627.78;5055465;28;20025;-50
2022/07/31 04:15:53;;;;;;;26.85;15.23;;;;;;;18.19;100.00;101623.19;5052368;28;20094;-49
2022/07/31 04:18:19;;;;;;;27.42;15.90;;;;;;;18.17;100.00;101630.66;5054227;28;20490;-49
2022/07/31 04:20:44;;;;;;;28.00;17.20;;;;;;;18.14;100.00;101614.81;5054385;28;20088;-52
2022/07/31 04:23:09;;;;;;;29.80;16.20;;;;;;;18.18;100.00;101631.53;5047004;28;20365;-51
2022/07/31 04:25:34;;;;;;;26.30;15.55;;;;;;;18.20;100.00;101635.69;5054862;28;20117;-50
2022/07/31 04:28:00;;;;;;;30.60;16.67;;;;;;;18.20;100.00;101635.69;5054472;28;20047;-50
2022/07/31 04:30:25;;;;;;;27.98;16.95;;;;;;;18.16;100.00;101628.16;5052352;28;20082;-51
2022/07/31 04:32:51;;;;;;;35.13;17.75;;;;;;;18.17;100.00;101633.38;5054825;28;20020;-50
2022/07/31 04:35:16;;;;;;;30.80;16.85;;;;;;;18.12;100.00;101635.81;5054066;28;20174;-49
2022/07/31 04:37:41;;;;;;;31.77;17.45;;;;;;;18.03;100.00;101636.97;5055048;28;20039;-47
2022/07/31 04:40:07;;;;;;;30.95;17.05;;;;;;;17.99;100.00;101638.38;5053045;28;20016;-50
2022/07/31 04:42:33;;;;;;;30.40;18.02;;;;;;;17.95;100.00;101637.09;5055444;28;20020;-50
2022/07/31 04:44:58;;;;;;;27.30;17.05;;;;;;;17.92;100.00;101632.88;5052268;28;20487;-51
2022/07/31 04:47:24;;;;;;;31.10;17.13;;;;;;;17.87;100.00;101633.47;5054517;28;20939;-52
2022/07/31 04:49:49;;;;;;;27.02;17.08;;;;;;;17.86;100.00;101612.88;5052817;28;20367;-51
2022/07/31 04:52:15;;;;;;;28.63;17.00;;;;;;;17.87;100.00;101627.22;5057649;28;20075;-50
2022/07/31 04:54:40;;;;;;;29.85;18.27;;;;;;;17.90;100.00;101632.25;5058486;28;20024;-52
2022/07/31 04:57:05;;;;;;;34.15;17.33;;;;;;;17.93;100.00;101637.28;5057048;28;20346;-50
2022/07/31 04:59:30;;;;;;;27.42;16.25;;;;;;;17.88;100.00;101629.72;5055902;28;20064;-52
2022/07/31 05:01:56;;;;;;;27.77;16.67;;;;;;;17.86;100.00;101631.78;5058259;28;20528;-51
2022/07/31 05:04:21;;;;;;;29.60;16.63;;;;;;;17.80;100.00;101618.19;5057176;28;20025;-51
2022/07/31 05:06:49;;;;;;;38.15;16.88;;;;;;;17.77;100.00;101622.09;5059008;28;20021;-50
2022/07/31 05:09:21;;;;;;;27.40;16.42;;;;;;;17.73;100.00;101628.91;5052405;28;20029;-53
2022/07/31 05:11:47;;;;;;;27.33;15.98;;;;;;;17.64;100.00;101620.06;5058254;28;20020;-51
2022/07/31 05:14:14;;;;;;;29.60;16.17;;;;;;;17.70;100.00;101621.16;5054276;28;20101;-48
2022/07/31 05:16:39;;;;;;;24.23;15.82;;;;;;;17.69;100.00;101623.03;5057918;28;20103;-50
2022/07/31 05:19:06;;;;;;;27.83;15.93;;;;;;;17.65;100.00;101616.34;5057102;28;20795;-50
2022/07/31 05:21:31;;;;;;;28.25;15.95;;;;;;;17.64;100.00;101609.25;5058391;28;20032;-50
2022/07/31 05:23:58;;;;;;;24.27;15.45;;;;;;;17.62;100.00;101615.91;5057380;28;20518;-51
2022/07/31 05:26:23;;;;;;;25.70;15.25;;;;;;;17.62;100.00;101615.91;5057693;28;20056;-52
2022/07/31 05:28:50;;;;;;;26.05;14.80;;;;;;;17.61;100.00;101615.03;5054646;28;20128;-48
2022/07/31 05:31:17;;;;;;;25.42;14.05;;;;;;;17.64;100.00;101605.75;5057350;28;20047;-51
2022/07/31 05:33:44;;;;;;;22.77;14.18;;;;;;;17.64;100.00;101603.88;5057330;28;20230;-51
2022/07/31 05:36:10;;;;;;;25.85;13.75;;;;;;;17.65;100.00;101600.16;5056927;28;20435;-52
2022/07/31 05:38:35;;;;;;;21.00;13.68;;;;;;;17.68;100.00;101594.38;5056750;28;20025;-51
2022/07/31 05:41:01;;;;;;;23.27;12.55;;;;;;;17.74;100.00;101603.56;5057631;28;20433;-52
2022/07/31 05:43:26;;;;;;;20.35;12.45;;;;;;;17.76;100.00;101603.38;5071321;28;20020;-51
2022/07/31 05:45:52;;;;;;;28.05;13.18;;;;;;;17.71;100.00;101610.19;5055096;28;20028;-50
2022/07/31 05:48:17;;;;;;;22.08;12.40;;;;;;;17.73;100.00;101607.28;5071912;28;20104;-50
2022/07/31 05:50:47;;;;;;;20.42;11.73;;;;;;;17.75;100.00;101616.03;5055215;28;20075;-51
2022/07/31 05:53:16;;;;;;;19.48;11.75;;;;;;;17.75;100.00;101607.09;5057149;28;20020;-48
2022/07/31 05:55:43;;;;;;;23.70;10.88;;;;;;;17.77;100.00;101611.31;5056620;28;20115;-50
2022/07/31 05:58:10;;;;;;;13.88;10.25;;;;;;;17.74;100.00;101606.28;5056865;28;20107;-47
2022/07/31 06:00:36;;;;;;;19.25;11.23;;;;;;;17.80;100.00;101610.91;5052905;28;20024;-48
2022/07/31 06:03:03;;;;;;;19.02;10.48;;;;;;;17.82;100.00;101608.00;5055482;28;20108;-52
2022/07/31 06:05:29;;;;;;;21.02;10.10;;;;;;;17.88;100.00;101610.00;5056667;28;20552;-51
2022/07/31 06:07:58;;;;;;;16.80;9.80;;;;;;;17.94;100.00;101617.34;5057213;28;20048;-46
2022/07/31 06:10:25;;;;;;;19.45;9.38;;;;;;;17.95;100.00;101623.59;5056034;28;20115;-49
2022/07/31 06:12:51;;;;;;;13.45;9.07;;;;;;;17.99;100.00;101617.59;5056931;28;20343;-50
2022/07/31 06:15:16;;;;;;;13.95;9.07;;;;;;;17.99;100.00;101616.75;5054430;28;20271;-49
2022/07/31 06:17:42;;;;;;;15.70;9.18;;;;;;;18.04;100.00;101608.91;5056299;28;20111;-51
2022/07/31 06:20:08;;;;;;;15.30;9.75;;;;;;;18.14;100.00;101609.41;5055441;28;20410;-49
2022/07/31 06:22:34;;;;;;;12.27;8.18;;;;;;;18.17;100.00;101609.03;5052552;28;20021;-49
2022/07/31 06:24:59;;;;;;;14.43;8.30;;;;;;;18.23;100.00;101604.75;5054270;28;20070;-51
2022/07/31 06:27:24;;;;;;;15.52;8.13;;;;;;;18.27;100.00;101604.16;5056006;28;20127;-50
2022/07/31 06:29:50;;;;;;;14.73;7.88;;;;;;;18.23;100.00;101602.88;5054425;28;20025;-50
2022/07/31 06:32:15;;;;;;;12.80;7.97;;;;;;;18.30;100.00;101596.69;5056095;28;20031;-51
2022/07/31 06:34:41;;;;;;;14.00;7.60;;;;;;;18.42;100.00;101603.25;5055725;28;20427;-51
2022/07/31 06:37:07;;;;;;;17.80;7.97;;;;;;;18.49;100.00;101596.03;5055116;28;20027;-51
2022/07/31 06:39:33;;;;;;;20.38;7.43;;;;;;;18.53;100.00;101602.72;5055824;28;20100;-49
2022/07/31 06:41:58;;;;;;;16.08;7.63;;;;;;;18.49;100.00;101601.44;5056542;28;20024;-50
2022/07/31 06:44:24;;;;;;;15.13;7.45;;;;;;;18.51;100.00;101593.13;5053608;28;20031;-50
2022/07/31 06:46:50;;;;;;;13.32;7.40;;;;;;;18.53;100.00;101591.88;5056158;28;20044;-52
2022/07/31 06:49:16;;;;;;;16.38;8.30;;;;;;;18.50;100.00;101589.59;5055137;28;20060;-48
2022/07/31 06:51:41;;;;;;;13.55;7.82;;;;;;;18.56;100.00;101605.03;5054905;28;20063;-51
2022/07/31 06:54:08;;;;;;;13.98;8.02;;;;;;;18.63;100.00;101605.94;5053840;28;20031;-47
2022/07/31 06:56:35;;;;;;;13.07;7.90;;;;;;;18.58;100.00;101597.53;5055796;28;20027;-49
2022/07/31 06:59:01;;;;;;;19.08;8.57;;;;;;;18.63;100.00;101600.53;5053513;28;20273;-48
2022/07/31 07:01:26;;;;;;;15.73;8.07;;;;;;;18.75;100.00;101605.38;5055467;28;20426;-51
2022/07/31 07:03:53;;;;;;;11.88;8.10;;;;;;;18.82;100.00;101608.97;5055382;28;20059;-51
2022/07/31 07:06:18;;;;;;;14.68;8.45;;;;;;;18.91;100.00;101610.53;5055477;28;20497;-50
2022/07/31 07:08:44;;;;;;;14.43;8.02;;;;;;;18.96;100.00;101601.84;5050371;28;20021;-49
2022/07/31 07:11:10;;;;;;;13.82;8.38;;;;;;;18.99;100.00;101604.13;5050146;28;20101;-47
2022/07/31 07:13:35;;;;;;;15.05;8.88;;;;;;;18.97;100.00;101617.03;5053195;28;20016;-49
2022/07/31 07:16:01;;;;;;;17.75;8.57;;;;;;;19.05;100.00;101608.75;5055235;28;20055;-50
2022/07/31 07:18:26;;;;;;;17.23;9.13;;;;;;;19.16;100.00;101607.34;5054749;28;20016;-48
2022/07/31 07:20:51;;;;;;;14.90;8.93;;;;;;;19.27;100.00;101600.56;5055244;28;20236;-49
2022/07/31 07:23:17;;;;;;;19.65;9.82;;;;;;;19.33;100.00;101607.84;5055043;28;20060;-51
2022/07/31 07:25:42;;;;;;;24.85;10.00;;;;;;;19.34;100.00;101604.13;5054700;28;20335;-51
2022/07/31 07:28:08;;;;;;;19.65;10.05;;;;;;;19.42;100.00;101597.72;5053253;28;20131;-51
2022/07/31 07:30:34;;;;;;;18.67;9.82;;;;;;;19.52;100.00;101600.88;5053911;28;20097;-51
2022/07/31 07:33:00;;;;;;;19.67;11.02;;;;;;;19.63;100.00;101596.75;5056238;28;20032;-51
2022/07/31 07:35:25;;;;;;;18.50;10.68;;;;;;;19.69;100.00;101595.94;5054449;28;20248;-51
2022/07/31 07:37:51;;;;;;;19.30;10.43;;;;;;;19.76;100.00;101591.41;5055133;28;20055;-51
2022/07/31 07:40:17;;;;;;;25.20;10.57;;;;;;;19.84;100.00;101590.38;5054755;28;20342;-48
2022/07/31 07:42:43;;;;;;;21.92;11.50;;;;;;;20.04;100.00;101591.25;5055453;28;20403;-47
2022/07/31 07:45:09;;;;;;;24.55;12.27;;;;;;;20.19;100.00;101577.50;5050716;28;20028;-51
2022/07/31 07:47:35;;;;;;;25.92;12.93;;;;;;;20.29;100.00;101580.63;5054956;28;20024;-48
2022/07/31 07:50:01;;;;;;;27.98;12.70;;;;;;;20.40;100.00;101576.50;5055871;28;20437;-50
2022/07/31 07:52:26;;;;;;;23.85;14.10;;;;;;;20.50;100.00;101576.91;5054650;28;20024;-50
2022/07/31 07:54:52;;;;;;;27.33;13.70;;;;;;;20.57;100.00;101585.03;5054842;28;20030;-50
2022/07/31 07:57:19;;;;;;;26.40;13.75;;;;;;;20.55;100.00;101578.16;5055031;28;20070;-50
2022/07/31 07:59:45;;;;;;;24.88;13.93;;;;;;;20.53;100.00;101580.25;5052497;28;20045;-47
2022/07/31 08:02:11;;;;;;;26.50;13.82;;;;;;;20.47;100.00;101587.34;5053497;28;20134;-51
2022/07/31 08:04:37;;;;;;;27.67;14.52;;;;;;;20.49;100.00;101583.38;5054274;28;20087;-51
2022/07/31 08:07:02;;;;;;;24.85;14.23;;;;;;;20.49;100.00;101585.25;5056001;28;20013;-50
2022/07/31 08:09:28;;;;;;;27.00;14.30;;;;;;;20.70;100.00;101583.38;5054127;28;20024;-49
2022/07/31 08:11:53;;;;;;;25.23;14.27;;;;;;;20.75;100.00;101589.03;5055438;28;20532;-50
2022/07/31 08:14:19;;;;;;;28.88;15.25;;;;;;;20.67;100.00;101584.63;5051773;28;20392;-46
2022/07/31 08:16:44;;;;;;;27.75;14.98;;;;;;;20.77;100.00;101579.59;5055349;28;20020;-52
2022/07/31 08:19:09;;;;;;;28.10;15.18;;;;;;;20.98;100.00;101588.56;5053393;28;20020;-51
2022/07/31 08:21:35;;;;;;;29.00;15.30;;;;;;;21.21;100.00;101580.75;5054326;28;20102;-50
2022/07/31 08:24:01;;;;;;;26.02;14.60;;;;;;;21.35;100.00;101594.31;5048394;28;20032;-48
2022/07/31 08:27:22;;;;;;;28.48;14.77;;;;;;;21.31;100.00;101582.19;5056532;28;20027;-48
2022/07/31 08:29:11;;;;;;;30.85;16.25;;;;;;;21.31;100.00;101582.19;5056141;28;20141;-51
2022/07/31 08:31:37;;;;;;;29.25;16.13;;;;;;;21.17;100.00;101576.81;5057895;28;20020;-51
2022/07/31 08:34:02;;;;;;;26.00;15.63;;;;;;;21.04;100.00;101576.84;5058149;28;20024;-49
2022/07/31 08:36:27;;;;;;;35.05;17.15;;;;;;;20.91;100.00;101575.00;5058309;28;20028;-52
2022/07/31 08:38:52;;;;;;;27.40;17.00;;;;;;;20.80;100.00;101581.91;5057921;28;20110;-50
2022/07/31 08:41:18;;;;;;;32.50;17.50;;;;;;;20.80;100.00;101579.19;5058805;28;20040;-49
2022/07/31 08:43:43;;;;;;;28.35;17.58;;;;;;;20.82;100.00;101582.53;5055665;28;20489;-50
2022/07/31 08:46:09;;;;;;;34.42;17.13;;;;;;;20.93;100.00;101577.53;5058125;28;20036;-50
2022/07/31 08:48:39;;;;;;;29.00;17.92;;;;;;;20.98;100.00;101583.16;5057758;28;20021;-47
2022/07/31 08:51:05;;;;;;;33.80;17.10;;;;;;;20.96;100.00;101582.50;5056643;28;20020;-49
2022/07/31 08:53:35;;;;;;;25.38;16.52;;;;;;;20.97;100.00;101587.72;5058304;28;20351;-48
2022/07/31 08:56:02;;;;;;;26.80;16.77;;;;;;;20.92;100.00;101589.41;5057351;28;20020;-48
2022/07/31 08:58:28;;;;;;;24.38;16.40;;;;;;;20.82;100.00;101587.13;5056597;28;20040;-50
2022/07/31 09:00:54;;;;;;;23.85;15.85;;;;;;;20.84;100.00;101594.03;5056857;28;20025;-53
2022/07/31 09:03:19;;;;;;;25.60;16.88;;;;;;;20.82;100.00;101592.56;5057746;28;20356;-49
2022/07/31 09:05:45;;;;;;;29.77;17.17;;;;;;;20.81;100.00;101593.63;5057103;28;20029;-50
2022/07/31 09:08:10;;;;;;;28.30;16.65;;;;;;;20.79;100.00;101584.81;5052446;28;20108;-48
2022/07/31 09:10:35;;;;;;;27.50;15.93;;;;;;;20.83;100.00;101581.50;5063547;28;20020;-50
2022/07/31 09:13:11;;;;;;;28.35;16.80;;;;;;;20.86;100.00;101575.63;5057710;28;20327;-51
2022/07/31 09:15:37;;;;;;;28.08;17.27;;;;;;;20.93;100.00;101575.63;5056671;28;20101;-47
2022/07/31 09:18:03;;;;;;;27.73;16.70;;;;;;;20.91;100.00;101568.72;5057883;28;20078;-49
2022/07/31 09:20:29;;;;;;;25.27;16.83;;;;;;;20.87;100.00;101576.47;5056978;28;20123;-46
2022/07/31 09:23:09;;;;;;;30.08;16.23;;;;;;;21.02;100.00;101568.09;5057365;28;20032;-49
2022/07/31 09:25:34;;;;;;;27.02;15.68;;;;;;;21.12;100.00;101570.34;5055805;28;20676;-49
2022/07/31 09:28:02;;;;;;;23.33;15.98;;;;;;;21.26;100.00;101571.16;5057141;28;20043;-51
2022/07/31 09:30:27;;;;;;;25.73;16.02;;;;;;;21.47;100.00;101575.47;5055413;28;20031;-49
2022/07/31 09:32:52;;;;;;;30.45;15.43;;;;;;;21.62;100.00;101578.75;5056787;28;20020;-50
2022/07/31 09:35:18;;;;;;;25.63;15.48;;;;;;;21.66;100.00;101571.00;5056607;28;20020;-50
2022/07/31 09:37:47;;;;;;;26.02;15.93;;;;;;;21.86;100.00;101569.00;5057036;28;20371;-48
2022/07/31 09:40:12;;;;;;;26.88;14.38;;;;;;;22.14;100.00;101574.03;5056192;28;20024;-49
2022/07/31 09:42:43;;;;;;;22.83;13.52;;;;;;;22.26;100.00;101573.34;5056553;28;20534;-48
2022/07/31 09:45:19;;;;;;;20.00;13.20;;;;;;;22.28;100.00;101569.34;5054740;28;20051;-48
2022/07/31 09:47:46;;;;;;;24.23;12.80;;;;;;;22.21;100.00;101562.28;5056461;28;20064;-48
2022/07/31 09:50:11;;;;;;;19.30;12.60;;;;;;;22.20;100.00;101564.19;5057071;28;20040;-49
2022/07/31 09:52:37;;;;;;;19.10;12.27;;;;;;;22.25;100.00;101567.06;5057287;28;20069;-49
2022/07/31 09:55:09;;;;;;;19.73;12.13;;;;;;;22.16;100.00;101569.19;5057059;28;20035;-49
2022/07/31 09:57:36;;;;;;;20.45;12.77;;;;;;;22.16;100.00;101563.75;5056132;28;20019;-49
2022/07/31 10:00:05;;;;;;;21.05;12.68;;;;;;;22.21;100.00;101559.56;5055797;28;20128;-51
2022/07/31 10:02:31;;;;;;;19.95;12.43;;;;;;;22.30;100.00;101569.13;5055057;28;20028;-52
2022/07/31 10:04:57;;;;;;;21.23;11.85;;;;;;;22.48;100.00;101568.38;5056513;28;20019;-50
2022/07/31 10:07:25;;;;;;;23.38;11.77;;;;;;;22.58;100.00;101559.69;5056400;28;20426;-50
2022/07/31 10:09:55;;;;;;;21.33;11.63;;;;;;;22.74;100.00;101559.09;5056493;28;20049;-52
2022/07/31 10:12:22;;;;;;;19.42;10.57;;;;;;;22.97;99.99;101555.72;5056938;28;20082;-51
2022/07/31 10:14:50;;;;;;;16.95;11.27;;;;;;;23.05;97.97;101566.31;5054030;28;20072;-52
2022/07/31 10:17:19;;;;;;;21.45;10.88;;;;;;;23.07;97.29;101566.13;5056777;28;20422;-50
2022/07/31 10:19:46;;;;;;;18.08;11.00;;;;;;;23.12;97.41;101560.84;5054760;28;20538;-52
2022/07/31 10:22:17;;;;;;;16.95;10.82;;;;;;;23.22;96.54;101563.88;5055665;28;20024;-51
2022/07/31 10:24:46;;;;;;;18.98;10.40;;;;;;;23.34;96.40;101554.94;5051312;28;20032;-51
2022/07/31 10:27:17;;;;;;;14.27;9.07;;;;;;;23.63;95.54;101551.38;5056481;28;20488;-51
2022/07/31 10:29:43;;;;;;;14.77;9.40;;;;;;;23.72;95.95;101551.88;5053526;28;20029;-51
2022/07/31 10:32:09;;;;;;;15.48;9.05;;;;;;;23.82;93.41;101549.44;5056131;28;20035;-52
2022/07/31 10:34:35;;;;;;;14.23;8.50;;;;;;;23.83;94.05;101550.31;5056220;28;20030;-52
2022/07/31 10:37:12;;;;;;;11.93;8.48;;;;;;;23.78;93.86;101541.94;5050532;28;20111;-52
2022/07/31 10:39:57;;;;;;;11.68;8.00;;;;;;;23.67;94.80;101542.72;5055603;28;20048;-51
2022/07/31 10:42:47;;;;;;;14.32;8.40;;;;;;;23.43;95.90;101539.91;5042907;28;20102;-51
2022/07/31 10:45:13;;;;;;;12.57;7.50;;;;;;;23.52;96.48;101552.13;5054291;28;20031;-50
2022/07/31 10:47:39;;;;;;;14.07;7.97;;;;;;;23.60;94.53;101542.81;5055656;28;20499;-50
2022/07/31 10:50:08;;;;;;;13.38;7.32;;;;;;;23.43;94.27;101539.91;5054208;28;20144;-51
2022/07/31 10:52:35;;;;;;;12.63;7.55;;;;;;;23.15;94.68;101546.75;5056112;28;20424;-51
2022/07/31 10:55:13;;;;;;;12.73;7.50;;;;;;;22.98;96.32;101543.78;5056124;28;20081;-51
2022/07/31 10:57:38;;;;;;;11.23;7.10;;;;;;;22.85;96.31;101544.75;5053798;28;20029;-50
2022/07/31 11:00:25;;;;;;;14.27;7.18;;;;;;;22.90;97.41;101538.63;5046093;28;20667;-48
2022/07/31 11:02:51;;;;;;;18.23;7.55;;;;;;;22.95;97.04;101540.69;5055931;28;20028;-52
2022/07/31 11:05:21;;;;;;;11.93;7.10;;;;;;;22.96;97.59;101528.72;5055248;28;20239;-51
2022/07/31 11:07:58;;;;;;;9.82;7.05;;;;;;;23.06;97.29;101521.69;5054014;28;20119;-52